<?xml version="1.0" encoding="UTF-8" standalone="no" ?>
<gpx xmlns="http://www.topografix.com/GPX/1/1" xmlns:xsi="http://www.w3.org/2001/XMLSchema-instance" xsi:schemaLocation="http://www.topografix.com/GPX/1/1 http://www.topografix.com/GPX/1/1/gpx.xsd" version="1.1" creator="VisuGPX - https://www.visugpx.com">
  <metadata>
    <name>Semur en auxois-Pont-Massène-Villenote</name>
    <desc><![CDATA[1h de VTT sur piste cyclable et en sécurité pour un exercice de maintien en forme]]></desc>
  </metadata>
  <trk>
    <name><![CDATA[Semur-Pont-Massène-Villenote]]></name>
    <cmt><![CDATA[VTT 1h facile, pistes cyclable, peu de voiture]]></cmt>
    <trkseg>
      <trkpt lat="47.49074" lon="4.33482">
        <ele>285.8</ele>
        <time>2012-07-26T16:13:03Z</time>
      </trkpt>
      <trkpt lat="47.49074" lon="4.33482">
        <ele>335</ele>
        <time>2012-07-26T16:13:24Z</time>
      </trkpt>
      <trkpt lat="47.49067" lon="4.33478">
        <ele>332.4</ele>
        <time>2012-07-26T16:13:43Z</time>
      </trkpt>
      <trkpt lat="47.49047" lon="4.33474">
        <ele>331</ele>
        <time>2012-07-26T16:13:58Z</time>
      </trkpt>
      <trkpt lat="47.49011" lon="4.33398">
        <ele>329.9</ele>
        <time>2012-07-26T16:14:05Z</time>
      </trkpt>
      <trkpt lat="47.4901" lon="4.33387">
        <ele>330.1</ele>
        <time>2012-07-26T16:14:07Z</time>
      </trkpt>
      <trkpt lat="47.49008" lon="4.33377">
        <ele>330</ele>
        <time>2012-07-26T16:14:11Z</time>
      </trkpt>
      <trkpt lat="47.48999" lon="4.33362">
        <ele>329.5</ele>
        <time>2012-07-26T16:14:18Z</time>
      </trkpt>
      <trkpt lat="47.48985" lon="4.33366">
        <ele>329.8</ele>
        <time>2012-07-26T16:14:22Z</time>
      </trkpt>
      <trkpt lat="47.48967" lon="4.33378">
        <ele>330</ele>
        <time>2012-07-26T16:14:26Z</time>
      </trkpt>
      <trkpt lat="47.4895" lon="4.33395">
        <ele>332</ele>
        <time>2012-07-26T16:14:30Z</time>
      </trkpt>
      <trkpt lat="47.48934" lon="4.33412">
        <ele>334.9</ele>
        <time>2012-07-26T16:14:34Z</time>
      </trkpt>
      <trkpt lat="47.48918" lon="4.33432">
        <ele>335.7</ele>
        <time>2012-07-26T16:14:38Z</time>
      </trkpt>
      <trkpt lat="47.48903" lon="4.33452">
        <ele>335.2</ele>
        <time>2012-07-26T16:14:42Z</time>
      </trkpt>
      <trkpt lat="47.48895" lon="4.33485">
        <ele>333.7</ele>
        <time>2012-07-26T16:14:46Z</time>
      </trkpt>
      <trkpt lat="47.48891" lon="4.33532">
        <ele>331</ele>
        <time>2012-07-26T16:14:51Z</time>
      </trkpt>
      <trkpt lat="47.48889" lon="4.33559">
        <ele>329.9</ele>
        <time>2012-07-26T16:14:54Z</time>
      </trkpt>
      <trkpt lat="47.48888" lon="4.33592">
        <ele>329.7</ele>
        <time>2012-07-26T16:14:58Z</time>
      </trkpt>
      <trkpt lat="47.48889" lon="4.33624">
        <ele>329.2</ele>
        <time>2012-07-26T16:15:02Z</time>
      </trkpt>
      <trkpt lat="47.48893" lon="4.33656">
        <ele>329.5</ele>
        <time>2012-07-26T16:15:06Z</time>
      </trkpt>
      <trkpt lat="47.48898" lon="4.33689">
        <ele>329.4</ele>
        <time>2012-07-26T16:15:10Z</time>
      </trkpt>
      <trkpt lat="47.48907" lon="4.33724">
        <ele>328.8</ele>
        <time>2012-07-26T16:15:14Z</time>
      </trkpt>
      <trkpt lat="47.48929" lon="4.33773">
        <ele>326.8</ele>
        <time>2012-07-26T16:15:19Z</time>
      </trkpt>
      <trkpt lat="47.48947" lon="4.33816">
        <ele>328</ele>
        <time>2012-07-26T16:15:23Z</time>
      </trkpt>
      <trkpt lat="47.4896" lon="4.33852">
        <ele>328.7</ele>
        <time>2012-07-26T16:15:27Z</time>
      </trkpt>
      <trkpt lat="47.48972" lon="4.33882">
        <ele>329.6</ele>
        <time>2012-07-26T16:15:31Z</time>
      </trkpt>
      <trkpt lat="47.48983" lon="4.33906">
        <ele>330</ele>
        <time>2012-07-26T16:15:35Z</time>
      </trkpt>
      <trkpt lat="47.48989" lon="4.33919">
        <ele>330.2</ele>
        <time>2012-07-26T16:15:37Z</time>
      </trkpt>
      <trkpt lat="47.49005" lon="4.33957">
        <ele>330.2</ele>
        <time>2012-07-26T16:15:43Z</time>
      </trkpt>
      <trkpt lat="47.49013" lon="4.33983">
        <ele>330.7</ele>
        <time>2012-07-26T16:15:47Z</time>
      </trkpt>
      <trkpt lat="47.49017" lon="4.33996">
        <ele>330.5</ele>
        <time>2012-07-26T16:15:49Z</time>
      </trkpt>
      <trkpt lat="47.49019" lon="4.34036">
        <ele>330.9</ele>
        <time>2012-07-26T16:15:55Z</time>
      </trkpt>
      <trkpt lat="47.49017" lon="4.34066">
        <ele>331.1</ele>
        <time>2012-07-26T16:15:59Z</time>
      </trkpt>
      <trkpt lat="47.4901" lon="4.34096">
        <ele>330.4</ele>
        <time>2012-07-26T16:16:03Z</time>
      </trkpt>
      <trkpt lat="47.48997" lon="4.34123">
        <ele>329</ele>
        <time>2012-07-26T16:16:07Z</time>
      </trkpt>
      <trkpt lat="47.48976" lon="4.34143">
        <ele>328.7</ele>
        <time>2012-07-26T16:16:11Z</time>
      </trkpt>
      <trkpt lat="47.48957" lon="4.3415">
        <ele>328.4</ele>
        <time>2012-07-26T16:16:14Z</time>
      </trkpt>
      <trkpt lat="47.48933" lon="4.34156">
        <ele>328.1</ele>
        <time>2012-07-26T16:16:18Z</time>
      </trkpt>
      <trkpt lat="47.48914" lon="4.34162">
        <ele>328.3</ele>
        <time>2012-07-26T16:16:22Z</time>
      </trkpt>
      <trkpt lat="47.48895" lon="4.34166">
        <ele>329.3</ele>
        <time>2012-07-26T16:16:26Z</time>
      </trkpt>
      <trkpt lat="47.48878" lon="4.34167">
        <ele>330.2</ele>
        <time>2012-07-26T16:16:30Z</time>
      </trkpt>
      <trkpt lat="47.48864" lon="4.34155">
        <ele>330.9</ele>
        <time>2012-07-26T16:16:34Z</time>
      </trkpt>
      <trkpt lat="47.48855" lon="4.34137">
        <ele>331.5</ele>
        <time>2012-07-26T16:16:38Z</time>
      </trkpt>
      <trkpt lat="47.4885" lon="4.34117">
        <ele>330.9</ele>
        <time>2012-07-26T16:16:42Z</time>
      </trkpt>
      <trkpt lat="47.48846" lon="4.34094">
        <ele>332.3</ele>
        <time>2012-07-26T16:16:46Z</time>
      </trkpt>
      <trkpt lat="47.48841" lon="4.34071">
        <ele>333.1</ele>
        <time>2012-07-26T16:16:50Z</time>
      </trkpt>
      <trkpt lat="47.48837" lon="4.34046">
        <ele>333.2</ele>
        <time>2012-07-26T16:16:54Z</time>
      </trkpt>
      <trkpt lat="47.48829" lon="4.3402">
        <ele>333.3</ele>
        <time>2012-07-26T16:16:58Z</time>
      </trkpt>
      <trkpt lat="47.48814" lon="4.33999">
        <ele>332.8</ele>
        <time>2012-07-26T16:17:02Z</time>
      </trkpt>
      <trkpt lat="47.48791" lon="4.33996">
        <ele>332.1</ele>
        <time>2012-07-26T16:17:06Z</time>
      </trkpt>
      <trkpt lat="47.48769" lon="4.34008">
        <ele>332.4</ele>
        <time>2012-07-26T16:17:10Z</time>
      </trkpt>
      <trkpt lat="47.48754" lon="4.34026">
        <ele>333.5</ele>
        <time>2012-07-26T16:17:14Z</time>
      </trkpt>
      <trkpt lat="47.48748" lon="4.3405">
        <ele>334.8</ele>
        <time>2012-07-26T16:17:18Z</time>
      </trkpt>
      <trkpt lat="47.48744" lon="4.34075">
        <ele>336.1</ele>
        <time>2012-07-26T16:17:22Z</time>
      </trkpt>
      <trkpt lat="47.48741" lon="4.34099">
        <ele>337.7</ele>
        <time>2012-07-26T16:17:26Z</time>
      </trkpt>
      <trkpt lat="47.48738" lon="4.34121">
        <ele>339</ele>
        <time>2012-07-26T16:17:30Z</time>
      </trkpt>
      <trkpt lat="47.48734" lon="4.34142">
        <ele>340.3</ele>
        <time>2012-07-26T16:17:34Z</time>
      </trkpt>
      <trkpt lat="47.48731" lon="4.34161">
        <ele>341.2</ele>
        <time>2012-07-26T16:17:38Z</time>
      </trkpt>
      <trkpt lat="47.48726" lon="4.34182">
        <ele>342.3</ele>
        <time>2012-07-26T16:17:43Z</time>
      </trkpt>
      <trkpt lat="47.48723" lon="4.34193">
        <ele>343.1</ele>
        <time>2012-07-26T16:17:46Z</time>
      </trkpt>
      <trkpt lat="47.48721" lon="4.34205">
        <ele>344.2</ele>
        <time>2012-07-26T16:17:49Z</time>
      </trkpt>
      <trkpt lat="47.48714" lon="4.34227">
        <ele>345.3</ele>
        <time>2012-07-26T16:17:55Z</time>
      </trkpt>
      <trkpt lat="47.48708" lon="4.34236">
        <ele>345.9</ele>
        <time>2012-07-26T16:17:58Z</time>
      </trkpt>
      <trkpt lat="47.48702" lon="4.34245">
        <ele>346.8</ele>
        <time>2012-07-26T16:18:01Z</time>
      </trkpt>
      <trkpt lat="47.48694" lon="4.34264">
        <ele>347.7</ele>
        <time>2012-07-26T16:18:07Z</time>
      </trkpt>
      <trkpt lat="47.4869" lon="4.34273">
        <ele>348</ele>
        <time>2012-07-26T16:18:10Z</time>
      </trkpt>
      <trkpt lat="47.48685" lon="4.34282">
        <ele>348.5</ele>
        <time>2012-07-26T16:18:13Z</time>
      </trkpt>
      <trkpt lat="47.48677" lon="4.34299">
        <ele>349.5</ele>
        <time>2012-07-26T16:18:19Z</time>
      </trkpt>
      <trkpt lat="47.48672" lon="4.34307">
        <ele>350.1</ele>
        <time>2012-07-26T16:18:22Z</time>
      </trkpt>
      <trkpt lat="47.48667" lon="4.34315">
        <ele>350.8</ele>
        <time>2012-07-26T16:18:25Z</time>
      </trkpt>
      <trkpt lat="47.48656" lon="4.34332">
        <ele>352.1</ele>
        <time>2012-07-26T16:18:31Z</time>
      </trkpt>
      <trkpt lat="47.48651" lon="4.34341">
        <ele>352.8</ele>
        <time>2012-07-26T16:18:34Z</time>
      </trkpt>
      <trkpt lat="47.48645" lon="4.34349">
        <ele>353.1</ele>
        <time>2012-07-26T16:18:37Z</time>
      </trkpt>
      <trkpt lat="47.4864" lon="4.34358">
        <ele>353.4</ele>
        <time>2012-07-26T16:18:40Z</time>
      </trkpt>
      <trkpt lat="47.48628" lon="4.34378">
        <ele>354.2</ele>
        <time>2012-07-26T16:18:47Z</time>
      </trkpt>
      <trkpt lat="47.48622" lon="4.34386">
        <ele>354.5</ele>
        <time>2012-07-26T16:18:50Z</time>
      </trkpt>
      <trkpt lat="47.48617" lon="4.34395">
        <ele>354.8</ele>
        <time>2012-07-26T16:18:53Z</time>
      </trkpt>
      <trkpt lat="47.48606" lon="4.34412">
        <ele>355.4</ele>
        <time>2012-07-26T16:18:59Z</time>
      </trkpt>
      <trkpt lat="47.48601" lon="4.3442">
        <ele>355.6</ele>
        <time>2012-07-26T16:19:02Z</time>
      </trkpt>
      <trkpt lat="47.48596" lon="4.34428">
        <ele>355.9</ele>
        <time>2012-07-26T16:19:05Z</time>
      </trkpt>
      <trkpt lat="47.48585" lon="4.34447">
        <ele>356.5</ele>
        <time>2012-07-26T16:19:11Z</time>
      </trkpt>
      <trkpt lat="47.48579" lon="4.34456">
        <ele>356.7</ele>
        <time>2012-07-26T16:19:14Z</time>
      </trkpt>
      <trkpt lat="47.48568" lon="4.34472">
        <ele>357</ele>
        <time>2012-07-26T16:19:19Z</time>
      </trkpt>
      <trkpt lat="47.48559" lon="4.34487">
        <ele>357</ele>
        <time>2012-07-26T16:19:23Z</time>
      </trkpt>
      <trkpt lat="47.48555" lon="4.34494">
        <ele>357.1</ele>
        <time>2012-07-26T16:19:25Z</time>
      </trkpt>
      <trkpt lat="47.48541" lon="4.34516">
        <ele>357.5</ele>
        <time>2012-07-26T16:19:31Z</time>
      </trkpt>
      <trkpt lat="47.48532" lon="4.34531">
        <ele>357.6</ele>
        <time>2012-07-26T16:19:35Z</time>
      </trkpt>
      <trkpt lat="47.48522" lon="4.34546">
        <ele>357.8</ele>
        <time>2012-07-26T16:19:39Z</time>
      </trkpt>
      <trkpt lat="47.48511" lon="4.34561">
        <ele>358</ele>
        <time>2012-07-26T16:19:43Z</time>
      </trkpt>
      <trkpt lat="47.48501" lon="4.34576">
        <ele>358.2</ele>
        <time>2012-07-26T16:19:47Z</time>
      </trkpt>
      <trkpt lat="47.4849" lon="4.34592">
        <ele>358.3</ele>
        <time>2012-07-26T16:19:51Z</time>
      </trkpt>
      <trkpt lat="47.48479" lon="4.34606">
        <ele>358.5</ele>
        <time>2012-07-26T16:19:55Z</time>
      </trkpt>
      <trkpt lat="47.48468" lon="4.3462">
        <ele>358.7</ele>
        <time>2012-07-26T16:19:59Z</time>
      </trkpt>
      <trkpt lat="47.48456" lon="4.34632">
        <ele>358.9</ele>
        <time>2012-07-26T16:20:03Z</time>
      </trkpt>
      <trkpt lat="47.48443" lon="4.34645">
        <ele>359.1</ele>
        <time>2012-07-26T16:20:07Z</time>
      </trkpt>
      <trkpt lat="47.4843" lon="4.34655">
        <ele>359.4</ele>
        <time>2012-07-26T16:20:11Z</time>
      </trkpt>
      <trkpt lat="47.48417" lon="4.34665">
        <ele>359.5</ele>
        <time>2012-07-26T16:20:15Z</time>
      </trkpt>
      <trkpt lat="47.48404" lon="4.34675">
        <ele>359.6</ele>
        <time>2012-07-26T16:20:19Z</time>
      </trkpt>
      <trkpt lat="47.4839" lon="4.34683">
        <ele>359.7</ele>
        <time>2012-07-26T16:20:23Z</time>
      </trkpt>
      <trkpt lat="47.48376" lon="4.34691">
        <ele>359.8</ele>
        <time>2012-07-26T16:20:27Z</time>
      </trkpt>
      <trkpt lat="47.48362" lon="4.34699">
        <ele>360</ele>
        <time>2012-07-26T16:20:31Z</time>
      </trkpt>
      <trkpt lat="47.48348" lon="4.34707">
        <ele>360.2</ele>
        <time>2012-07-26T16:20:35Z</time>
      </trkpt>
      <trkpt lat="47.48334" lon="4.34715">
        <ele>360.3</ele>
        <time>2012-07-26T16:20:39Z</time>
      </trkpt>
      <trkpt lat="47.4832" lon="4.34722">
        <ele>360.7</ele>
        <time>2012-07-26T16:20:43Z</time>
      </trkpt>
      <trkpt lat="47.48305" lon="4.3473">
        <ele>361.2</ele>
        <time>2012-07-26T16:20:47Z</time>
      </trkpt>
      <trkpt lat="47.48291" lon="4.34737">
        <ele>361.8</ele>
        <time>2012-07-26T16:20:51Z</time>
      </trkpt>
      <trkpt lat="47.48285" lon="4.34741">
        <ele>362</ele>
        <time>2012-07-26T16:20:53Z</time>
      </trkpt>
      <trkpt lat="47.4827" lon="4.34749">
        <ele>362.8</ele>
        <time>2012-07-26T16:20:58Z</time>
      </trkpt>
      <trkpt lat="47.48262" lon="4.34752">
        <ele>363.3</ele>
        <time>2012-07-26T16:21:01Z</time>
      </trkpt>
      <trkpt lat="47.48247" lon="4.3476">
        <ele>364.3</ele>
        <time>2012-07-26T16:21:07Z</time>
      </trkpt>
      <trkpt lat="47.4824" lon="4.34764">
        <ele>364.8</ele>
        <time>2012-07-26T16:21:10Z</time>
      </trkpt>
      <trkpt lat="47.48233" lon="4.34768">
        <ele>365.3</ele>
        <time>2012-07-26T16:21:13Z</time>
      </trkpt>
      <trkpt lat="47.48219" lon="4.34774">
        <ele>366</ele>
        <time>2012-07-26T16:21:19Z</time>
      </trkpt>
      <trkpt lat="47.48212" lon="4.34778">
        <ele>366.3</ele>
        <time>2012-07-26T16:21:22Z</time>
      </trkpt>
      <trkpt lat="47.48204" lon="4.34782">
        <ele>366.7</ele>
        <time>2012-07-26T16:21:25Z</time>
      </trkpt>
      <trkpt lat="47.4819" lon="4.3479">
        <ele>367.3</ele>
        <time>2012-07-26T16:21:31Z</time>
      </trkpt>
      <trkpt lat="47.48182" lon="4.34794">
        <ele>367.6</ele>
        <time>2012-07-26T16:21:35Z</time>
      </trkpt>
      <trkpt lat="47.48175" lon="4.34798">
        <ele>367.7</ele>
        <time>2012-07-26T16:21:38Z</time>
      </trkpt>
      <trkpt lat="47.48168" lon="4.34802">
        <ele>367.8</ele>
        <time>2012-07-26T16:21:41Z</time>
      </trkpt>
      <trkpt lat="47.48152" lon="4.3481">
        <ele>367.7</ele>
        <time>2012-07-26T16:21:46Z</time>
      </trkpt>
      <trkpt lat="47.48139" lon="4.34818">
        <ele>367.4</ele>
        <time>2012-07-26T16:21:50Z</time>
      </trkpt>
      <trkpt lat="47.48123" lon="4.34829">
        <ele>367</ele>
        <time>2012-07-26T16:21:54Z</time>
      </trkpt>
      <trkpt lat="47.48105" lon="4.34844">
        <ele>366.5</ele>
        <time>2012-07-26T16:21:58Z</time>
      </trkpt>
      <trkpt lat="47.48086" lon="4.3486">
        <ele>366.3</ele>
        <time>2012-07-26T16:22:02Z</time>
      </trkpt>
      <trkpt lat="47.48068" lon="4.34877">
        <ele>366</ele>
        <time>2012-07-26T16:22:06Z</time>
      </trkpt>
      <trkpt lat="47.48051" lon="4.34892">
        <ele>366</ele>
        <time>2012-07-26T16:22:10Z</time>
      </trkpt>
      <trkpt lat="47.48033" lon="4.34909">
        <ele>365.9</ele>
        <time>2012-07-26T16:22:14Z</time>
      </trkpt>
      <trkpt lat="47.48013" lon="4.34926">
        <ele>365.7</ele>
        <time>2012-07-26T16:22:18Z</time>
      </trkpt>
      <trkpt lat="47.47993" lon="4.34945">
        <ele>365.6</ele>
        <time>2012-07-26T16:22:22Z</time>
      </trkpt>
      <trkpt lat="47.47972" lon="4.34962">
        <ele>365.5</ele>
        <time>2012-07-26T16:22:26Z</time>
      </trkpt>
      <trkpt lat="47.47953" lon="4.3498">
        <ele>365.1</ele>
        <time>2012-07-26T16:22:30Z</time>
      </trkpt>
      <trkpt lat="47.47934" lon="4.34997">
        <ele>364.6</ele>
        <time>2012-07-26T16:22:34Z</time>
      </trkpt>
      <trkpt lat="47.47915" lon="4.35014">
        <ele>364</ele>
        <time>2012-07-26T16:22:38Z</time>
      </trkpt>
      <trkpt lat="47.47895" lon="4.35031">
        <ele>363.3</ele>
        <time>2012-07-26T16:22:42Z</time>
      </trkpt>
      <trkpt lat="47.47875" lon="4.3505">
        <ele>362.6</ele>
        <time>2012-07-26T16:22:46Z</time>
      </trkpt>
      <trkpt lat="47.47849" lon="4.35076">
        <ele>361.4</ele>
        <time>2012-07-26T16:22:51Z</time>
      </trkpt>
      <trkpt lat="47.47801" lon="4.35126">
        <ele>359.5</ele>
        <time>2012-07-26T16:22:55Z</time>
      </trkpt>
      <trkpt lat="47.47775" lon="4.35151">
        <ele>356.2</ele>
        <time>2012-07-26T16:22:59Z</time>
      </trkpt>
      <trkpt lat="47.47745" lon="4.35179">
        <ele>351.7</ele>
        <time>2012-07-26T16:23:03Z</time>
      </trkpt>
      <trkpt lat="47.4771" lon="4.3521">
        <ele>346.3</ele>
        <time>2012-07-26T16:23:07Z</time>
      </trkpt>
      <trkpt lat="47.4767" lon="4.3524">
        <ele>340.8</ele>
        <time>2012-07-26T16:23:11Z</time>
      </trkpt>
      <trkpt lat="47.47625" lon="4.35262">
        <ele>336.9</ele>
        <time>2012-07-26T16:23:15Z</time>
      </trkpt>
      <trkpt lat="47.47579" lon="4.3527">
        <ele>333.5</ele>
        <time>2012-07-26T16:23:19Z</time>
      </trkpt>
      <trkpt lat="47.47532" lon="4.35267">
        <ele>329.3</ele>
        <time>2012-07-26T16:23:23Z</time>
      </trkpt>
      <trkpt lat="47.47485" lon="4.35258">
        <ele>325.7</ele>
        <time>2012-07-26T16:23:26Z</time>
      </trkpt>
      <trkpt lat="47.47438" lon="4.35253">
        <ele>322.3</ele>
        <time>2012-07-26T16:23:30Z</time>
      </trkpt>
      <trkpt lat="47.4739" lon="4.35263">
        <ele>318.6</ele>
        <time>2012-07-26T16:23:34Z</time>
      </trkpt>
      <trkpt lat="47.47346" lon="4.35281">
        <ele>315.3</ele>
        <time>2012-07-26T16:23:38Z</time>
      </trkpt>
      <trkpt lat="47.47322" lon="4.35292">
        <ele>314.5</ele>
        <time>2012-07-26T16:23:41Z</time>
      </trkpt>
      <trkpt lat="47.47307" lon="4.35299">
        <ele>314.3</ele>
        <time>2012-07-26T16:23:46Z</time>
      </trkpt>
      <trkpt lat="47.47303" lon="4.35322">
        <ele>318.2</ele>
        <time>2012-07-26T16:23:54Z</time>
      </trkpt>
      <trkpt lat="47.47298" lon="4.35332">
        <ele>319.8</ele>
        <time>2012-07-26T16:23:57Z</time>
      </trkpt>
      <trkpt lat="47.47292" lon="4.35343">
        <ele>321.1</ele>
        <time>2012-07-26T16:24:00Z</time>
      </trkpt>
      <trkpt lat="47.47282" lon="4.35362">
        <ele>323.5</ele>
        <time>2012-07-26T16:24:06Z</time>
      </trkpt>
      <trkpt lat="47.47276" lon="4.35371">
        <ele>324.5</ele>
        <time>2012-07-26T16:24:09Z</time>
      </trkpt>
      <trkpt lat="47.4727" lon="4.3538">
        <ele>325.1</ele>
        <time>2012-07-26T16:24:12Z</time>
      </trkpt>
      <trkpt lat="47.47258" lon="4.35398">
        <ele>326.6</ele>
        <time>2012-07-26T16:24:18Z</time>
      </trkpt>
      <trkpt lat="47.47251" lon="4.35407">
        <ele>327.4</ele>
        <time>2012-07-26T16:24:21Z</time>
      </trkpt>
      <trkpt lat="47.47246" lon="4.35417">
        <ele>328.4</ele>
        <time>2012-07-26T16:24:24Z</time>
      </trkpt>
      <trkpt lat="47.47235" lon="4.35438">
        <ele>330.3</ele>
        <time>2012-07-26T16:24:30Z</time>
      </trkpt>
      <trkpt lat="47.47231" lon="4.35449">
        <ele>331</ele>
        <time>2012-07-26T16:24:33Z</time>
      </trkpt>
      <trkpt lat="47.47227" lon="4.35461">
        <ele>331.6</ele>
        <time>2012-07-26T16:24:36Z</time>
      </trkpt>
      <trkpt lat="47.47222" lon="4.35482">
        <ele>333</ele>
        <time>2012-07-26T16:24:41Z</time>
      </trkpt>
      <trkpt lat="47.4722" lon="4.35505">
        <ele>333.8</ele>
        <time>2012-07-26T16:24:46Z</time>
      </trkpt>
      <trkpt lat="47.47222" lon="4.35523">
        <ele>334.2</ele>
        <time>2012-07-26T16:24:50Z</time>
      </trkpt>
      <trkpt lat="47.47227" lon="4.35541">
        <ele>334.4</ele>
        <time>2012-07-26T16:24:54Z</time>
      </trkpt>
      <trkpt lat="47.47229" lon="4.35551">
        <ele>334.5</ele>
        <time>2012-07-26T16:24:56Z</time>
      </trkpt>
      <trkpt lat="47.47234" lon="4.35571">
        <ele>334.8</ele>
        <time>2012-07-26T16:25:00Z</time>
      </trkpt>
      <trkpt lat="47.47242" lon="4.356">
        <ele>335.6</ele>
        <time>2012-07-26T16:25:06Z</time>
      </trkpt>
      <trkpt lat="47.47248" lon="4.35619">
        <ele>336.4</ele>
        <time>2012-07-26T16:25:10Z</time>
      </trkpt>
      <trkpt lat="47.47253" lon="4.35638">
        <ele>337</ele>
        <time>2012-07-26T16:25:14Z</time>
      </trkpt>
      <trkpt lat="47.47259" lon="4.35659">
        <ele>337.2</ele>
        <time>2012-07-26T16:25:18Z</time>
      </trkpt>
      <trkpt lat="47.47267" lon="4.35682">
        <ele>336.8</ele>
        <time>2012-07-26T16:25:22Z</time>
      </trkpt>
      <trkpt lat="47.47276" lon="4.35708">
        <ele>337</ele>
        <time>2012-07-26T16:25:26Z</time>
      </trkpt>
      <trkpt lat="47.47287" lon="4.35733">
        <ele>336.4</ele>
        <time>2012-07-26T16:25:30Z</time>
      </trkpt>
      <trkpt lat="47.47296" lon="4.35762">
        <ele>336.1</ele>
        <time>2012-07-26T16:25:34Z</time>
      </trkpt>
      <trkpt lat="47.47301" lon="4.35794">
        <ele>336.2</ele>
        <time>2012-07-26T16:25:38Z</time>
      </trkpt>
      <trkpt lat="47.47304" lon="4.35826">
        <ele>336</ele>
        <time>2012-07-26T16:25:42Z</time>
      </trkpt>
      <trkpt lat="47.47303" lon="4.35861">
        <ele>335.9</ele>
        <time>2012-07-26T16:25:46Z</time>
      </trkpt>
      <trkpt lat="47.47303" lon="4.35898">
        <ele>334.8</ele>
        <time>2012-07-26T16:25:50Z</time>
      </trkpt>
      <trkpt lat="47.47303" lon="4.35926">
        <ele>334.6</ele>
        <time>2012-07-26T16:25:53Z</time>
      </trkpt>
      <trkpt lat="47.47305" lon="4.35961">
        <ele>334.5</ele>
        <time>2012-07-26T16:25:57Z</time>
      </trkpt>
      <trkpt lat="47.47309" lon="4.35992">
        <ele>335.3</ele>
        <time>2012-07-26T16:26:01Z</time>
      </trkpt>
      <trkpt lat="47.47315" lon="4.3602">
        <ele>335.6</ele>
        <time>2012-07-26T16:26:05Z</time>
      </trkpt>
      <trkpt lat="47.47321" lon="4.36047">
        <ele>335.7</ele>
        <time>2012-07-26T16:26:09Z</time>
      </trkpt>
      <trkpt lat="47.47325" lon="4.36076">
        <ele>335.4</ele>
        <time>2012-07-26T16:26:13Z</time>
      </trkpt>
      <trkpt lat="47.47325" lon="4.36106">
        <ele>335.5</ele>
        <time>2012-07-26T16:26:17Z</time>
      </trkpt>
      <trkpt lat="47.4732" lon="4.36149">
        <ele>335.8</ele>
        <time>2012-07-26T16:26:23Z</time>
      </trkpt>
      <trkpt lat="47.47317" lon="4.3618">
        <ele>335.8</ele>
        <time>2012-07-26T16:26:27Z</time>
      </trkpt>
      <trkpt lat="47.47316" lon="4.36195">
        <ele>335.8</ele>
        <time>2012-07-26T16:26:29Z</time>
      </trkpt>
      <trkpt lat="47.47311" lon="4.36241">
        <ele>336.1</ele>
        <time>2012-07-26T16:26:35Z</time>
      </trkpt>
      <trkpt lat="47.47309" lon="4.36255">
        <ele>336.2</ele>
        <time>2012-07-26T16:26:37Z</time>
      </trkpt>
      <trkpt lat="47.47307" lon="4.36283">
        <ele>336.5</ele>
        <time>2012-07-26T16:26:41Z</time>
      </trkpt>
      <trkpt lat="47.47309" lon="4.36331">
        <ele>335.9</ele>
        <time>2012-07-26T16:26:47Z</time>
      </trkpt>
      <trkpt lat="47.47314" lon="4.36359">
        <ele>335.3</ele>
        <time>2012-07-26T16:26:50Z</time>
      </trkpt>
      <trkpt lat="47.4733" lon="4.36404">
        <ele>334.9</ele>
        <time>2012-07-26T16:26:55Z</time>
      </trkpt>
      <trkpt lat="47.47342" lon="4.36427">
        <ele>334.9</ele>
        <time>2012-07-26T16:26:58Z</time>
      </trkpt>
      <trkpt lat="47.47365" lon="4.36458">
        <ele>334.3</ele>
        <time>2012-07-26T16:27:03Z</time>
      </trkpt>
      <trkpt lat="47.47384" lon="4.36481">
        <ele>333.6</ele>
        <time>2012-07-26T16:27:07Z</time>
      </trkpt>
      <trkpt lat="47.47401" lon="4.36503">
        <ele>333.3</ele>
        <time>2012-07-26T16:27:11Z</time>
      </trkpt>
      <trkpt lat="47.47409" lon="4.36514">
        <ele>333.2</ele>
        <time>2012-07-26T16:27:13Z</time>
      </trkpt>
      <trkpt lat="47.47431" lon="4.3655">
        <ele>333.4</ele>
        <time>2012-07-26T16:27:19Z</time>
      </trkpt>
      <trkpt lat="47.47446" lon="4.36576">
        <ele>332.9</ele>
        <time>2012-07-26T16:27:23Z</time>
      </trkpt>
      <trkpt lat="47.47462" lon="4.36601">
        <ele>333.1</ele>
        <time>2012-07-26T16:27:27Z</time>
      </trkpt>
      <trkpt lat="47.47478" lon="4.36624">
        <ele>333.7</ele>
        <time>2012-07-26T16:27:31Z</time>
      </trkpt>
      <trkpt lat="47.47492" lon="4.36642">
        <ele>334.5</ele>
        <time>2012-07-26T16:27:35Z</time>
      </trkpt>
      <trkpt lat="47.47504" lon="4.36657">
        <ele>335.1</ele>
        <time>2012-07-26T16:27:39Z</time>
      </trkpt>
      <trkpt lat="47.47515" lon="4.3667">
        <ele>336.3</ele>
        <time>2012-07-26T16:27:43Z</time>
      </trkpt>
      <trkpt lat="47.47526" lon="4.36683">
        <ele>337.3</ele>
        <time>2012-07-26T16:27:47Z</time>
      </trkpt>
      <trkpt lat="47.47537" lon="4.36696">
        <ele>338.3</ele>
        <time>2012-07-26T16:27:51Z</time>
      </trkpt>
      <trkpt lat="47.47554" lon="4.36716">
        <ele>339.7</ele>
        <time>2012-07-26T16:27:58Z</time>
      </trkpt>
      <trkpt lat="47.47561" lon="4.36723">
        <ele>340</ele>
        <time>2012-07-26T16:28:01Z</time>
      </trkpt>
      <trkpt lat="47.47574" lon="4.36739">
        <ele>340.3</ele>
        <time>2012-07-26T16:28:07Z</time>
      </trkpt>
      <trkpt lat="47.47602" lon="4.3677">
        <ele>341.2</ele>
        <time>2012-07-26T16:28:19Z</time>
      </trkpt>
      <trkpt lat="47.47609" lon="4.36777">
        <ele>341.2</ele>
        <time>2012-07-26T16:28:22Z</time>
      </trkpt>
      <trkpt lat="47.47617" lon="4.36785">
        <ele>341.2</ele>
        <time>2012-07-26T16:28:25Z</time>
      </trkpt>
      <trkpt lat="47.4763" lon="4.36799">
        <ele>341.7</ele>
        <time>2012-07-26T16:28:31Z</time>
      </trkpt>
      <trkpt lat="47.47635" lon="4.36805">
        <ele>341.9</ele>
        <time>2012-07-26T16:28:34Z</time>
      </trkpt>
      <trkpt lat="47.47637" lon="4.36816">
        <ele>341.8</ele>
        <time>2012-07-26T16:28:38Z</time>
      </trkpt>
      <trkpt lat="47.47642" lon="4.36826">
        <ele>342</ele>
        <time>2012-07-26T16:28:55Z</time>
      </trkpt>
      <trkpt lat="47.4765" lon="4.36842">
        <ele>341.6</ele>
        <time>2012-07-26T16:28:59Z</time>
      </trkpt>
      <trkpt lat="47.47655" lon="4.36869">
        <ele>340.6</ele>
        <time>2012-07-26T16:29:03Z</time>
      </trkpt>
      <trkpt lat="47.47653" lon="4.36903">
        <ele>339.3</ele>
        <time>2012-07-26T16:29:07Z</time>
      </trkpt>
      <trkpt lat="47.47655" lon="4.36937">
        <ele>338.8</ele>
        <time>2012-07-26T16:29:11Z</time>
      </trkpt>
      <trkpt lat="47.47668" lon="4.36961">
        <ele>338.5</ele>
        <time>2012-07-26T16:29:15Z</time>
      </trkpt>
      <trkpt lat="47.47681" lon="4.36977">
        <ele>338.6</ele>
        <time>2012-07-26T16:29:19Z</time>
      </trkpt>
      <trkpt lat="47.47692" lon="4.36994">
        <ele>338.9</ele>
        <time>2012-07-26T16:29:23Z</time>
      </trkpt>
      <trkpt lat="47.47702" lon="4.37012">
        <ele>338.9</ele>
        <time>2012-07-26T16:29:27Z</time>
      </trkpt>
      <trkpt lat="47.47713" lon="4.37029">
        <ele>339.1</ele>
        <time>2012-07-26T16:29:31Z</time>
      </trkpt>
      <trkpt lat="47.47725" lon="4.37047">
        <ele>339.7</ele>
        <time>2012-07-26T16:29:35Z</time>
      </trkpt>
      <trkpt lat="47.47737" lon="4.37062">
        <ele>340.5</ele>
        <time>2012-07-26T16:29:39Z</time>
      </trkpt>
      <trkpt lat="47.47749" lon="4.37075">
        <ele>341.8</ele>
        <time>2012-07-26T16:29:43Z</time>
      </trkpt>
      <trkpt lat="47.47755" lon="4.3708">
        <ele>342.5</ele>
        <time>2012-07-26T16:29:45Z</time>
      </trkpt>
      <trkpt lat="47.4777" lon="4.37091">
        <ele>344.3</ele>
        <time>2012-07-26T16:29:51Z</time>
      </trkpt>
      <trkpt lat="47.47776" lon="4.37095">
        <ele>345.1</ele>
        <time>2012-07-26T16:29:54Z</time>
      </trkpt>
      <trkpt lat="47.47783" lon="4.37098">
        <ele>345.9</ele>
        <time>2012-07-26T16:29:57Z</time>
      </trkpt>
      <trkpt lat="47.47791" lon="4.37101">
        <ele>346.3</ele>
        <time>2012-07-26T16:30:01Z</time>
      </trkpt>
      <trkpt lat="47.47803" lon="4.37106">
        <ele>346.6</ele>
        <time>2012-07-26T16:30:07Z</time>
      </trkpt>
      <trkpt lat="47.4781" lon="4.37108">
        <ele>346.8</ele>
        <time>2012-07-26T16:30:10Z</time>
      </trkpt>
      <trkpt lat="47.47817" lon="4.37111">
        <ele>347</ele>
        <time>2012-07-26T16:30:13Z</time>
      </trkpt>
      <trkpt lat="47.4783" lon="4.37116">
        <ele>347.4</ele>
        <time>2012-07-26T16:30:19Z</time>
      </trkpt>
      <trkpt lat="47.47836" lon="4.37119">
        <ele>347.8</ele>
        <time>2012-07-26T16:30:22Z</time>
      </trkpt>
      <trkpt lat="47.47842" lon="4.37121">
        <ele>348.2</ele>
        <time>2012-07-26T16:30:25Z</time>
      </trkpt>
      <trkpt lat="47.47855" lon="4.37128">
        <ele>348.9</ele>
        <time>2012-07-26T16:30:31Z</time>
      </trkpt>
      <trkpt lat="47.47861" lon="4.37133">
        <ele>349.1</ele>
        <time>2012-07-26T16:30:34Z</time>
      </trkpt>
      <trkpt lat="47.47869" lon="4.37136">
        <ele>349.4</ele>
        <time>2012-07-26T16:30:37Z</time>
      </trkpt>
      <trkpt lat="47.47883" lon="4.37143">
        <ele>350</ele>
        <time>2012-07-26T16:30:43Z</time>
      </trkpt>
      <trkpt lat="47.4789" lon="4.37147">
        <ele>350.4</ele>
        <time>2012-07-26T16:30:46Z</time>
      </trkpt>
      <trkpt lat="47.47897" lon="4.3715">
        <ele>350.9</ele>
        <time>2012-07-26T16:30:49Z</time>
      </trkpt>
      <trkpt lat="47.47911" lon="4.37156">
        <ele>351.3</ele>
        <time>2012-07-26T16:30:55Z</time>
      </trkpt>
      <trkpt lat="47.47918" lon="4.37159">
        <ele>351.7</ele>
        <time>2012-07-26T16:30:58Z</time>
      </trkpt>
      <trkpt lat="47.47925" lon="4.37162">
        <ele>352.2</ele>
        <time>2012-07-26T16:31:01Z</time>
      </trkpt>
      <trkpt lat="47.4794" lon="4.37168">
        <ele>352.8</ele>
        <time>2012-07-26T16:31:07Z</time>
      </trkpt>
      <trkpt lat="47.47947" lon="4.37172">
        <ele>352.9</ele>
        <time>2012-07-26T16:31:10Z</time>
      </trkpt>
      <trkpt lat="47.47953" lon="4.37173">
        <ele>353.1</ele>
        <time>2012-07-26T16:31:13Z</time>
      </trkpt>
      <trkpt lat="47.4796" lon="4.37177">
        <ele>352.9</ele>
        <time>2012-07-26T16:31:17Z</time>
      </trkpt>
      <trkpt lat="47.47971" lon="4.37183">
        <ele>350.7</ele>
        <time>2012-07-26T16:32:27Z</time>
      </trkpt>
      <trkpt lat="47.47978" lon="4.37188">
        <ele>350.9</ele>
        <time>2012-07-26T16:32:30Z</time>
      </trkpt>
      <trkpt lat="47.47985" lon="4.37193">
        <ele>351.1</ele>
        <time>2012-07-26T16:32:33Z</time>
      </trkpt>
      <trkpt lat="47.47998" lon="4.37204">
        <ele>350.9</ele>
        <time>2012-07-26T16:32:38Z</time>
      </trkpt>
      <trkpt lat="47.48009" lon="4.37216">
        <ele>351.2</ele>
        <time>2012-07-26T16:32:42Z</time>
      </trkpt>
      <trkpt lat="47.48021" lon="4.37229">
        <ele>351.7</ele>
        <time>2012-07-26T16:32:46Z</time>
      </trkpt>
      <trkpt lat="47.48032" lon="4.37244">
        <ele>352</ele>
        <time>2012-07-26T16:32:50Z</time>
      </trkpt>
      <trkpt lat="47.48043" lon="4.3726">
        <ele>352.5</ele>
        <time>2012-07-26T16:32:54Z</time>
      </trkpt>
      <trkpt lat="47.48053" lon="4.37277">
        <ele>352.5</ele>
        <time>2012-07-26T16:32:58Z</time>
      </trkpt>
      <trkpt lat="47.48062" lon="4.37294">
        <ele>352.5</ele>
        <time>2012-07-26T16:33:02Z</time>
      </trkpt>
      <trkpt lat="47.48072" lon="4.37311">
        <ele>352.6</ele>
        <time>2012-07-26T16:33:06Z</time>
      </trkpt>
      <trkpt lat="47.48082" lon="4.3733">
        <ele>352.7</ele>
        <time>2012-07-26T16:33:10Z</time>
      </trkpt>
      <trkpt lat="47.48093" lon="4.37348">
        <ele>352.7</ele>
        <time>2012-07-26T16:33:14Z</time>
      </trkpt>
      <trkpt lat="47.48103" lon="4.37366">
        <ele>352.8</ele>
        <time>2012-07-26T16:33:18Z</time>
      </trkpt>
      <trkpt lat="47.48114" lon="4.37384">
        <ele>353.1</ele>
        <time>2012-07-26T16:33:22Z</time>
      </trkpt>
      <trkpt lat="47.48126" lon="4.37403">
        <ele>353.3</ele>
        <time>2012-07-26T16:33:26Z</time>
      </trkpt>
      <trkpt lat="47.48137" lon="4.37421">
        <ele>353.5</ele>
        <time>2012-07-26T16:33:30Z</time>
      </trkpt>
      <trkpt lat="47.48148" lon="4.37441">
        <ele>353.6</ele>
        <time>2012-07-26T16:33:34Z</time>
      </trkpt>
      <trkpt lat="47.48159" lon="4.37459">
        <ele>353.5</ele>
        <time>2012-07-26T16:33:38Z</time>
      </trkpt>
      <trkpt lat="47.4817" lon="4.37477">
        <ele>353.4</ele>
        <time>2012-07-26T16:33:42Z</time>
      </trkpt>
      <trkpt lat="47.4818" lon="4.37493">
        <ele>353.2</ele>
        <time>2012-07-26T16:33:46Z</time>
      </trkpt>
      <trkpt lat="47.4819" lon="4.37508">
        <ele>352.9</ele>
        <time>2012-07-26T16:33:50Z</time>
      </trkpt>
      <trkpt lat="47.48204" lon="4.37515">
        <ele>352.8</ele>
        <time>2012-07-26T16:33:54Z</time>
      </trkpt>
      <trkpt lat="47.48222" lon="4.37525">
        <ele>352.5</ele>
        <time>2012-07-26T16:33:58Z</time>
      </trkpt>
      <trkpt lat="47.4824" lon="4.37537">
        <ele>352.8</ele>
        <time>2012-07-26T16:34:02Z</time>
      </trkpt>
      <trkpt lat="47.48257" lon="4.3755">
        <ele>353.1</ele>
        <time>2012-07-26T16:34:06Z</time>
      </trkpt>
      <trkpt lat="47.48273" lon="4.37563">
        <ele>353.4</ele>
        <time>2012-07-26T16:34:10Z</time>
      </trkpt>
      <trkpt lat="47.48288" lon="4.37577">
        <ele>353.7</ele>
        <time>2012-07-26T16:34:14Z</time>
      </trkpt>
      <trkpt lat="47.48304" lon="4.37594">
        <ele>353.8</ele>
        <time>2012-07-26T16:34:18Z</time>
      </trkpt>
      <trkpt lat="47.48318" lon="4.37612">
        <ele>353.9</ele>
        <time>2012-07-26T16:34:22Z</time>
      </trkpt>
      <trkpt lat="47.48332" lon="4.37631">
        <ele>354.1</ele>
        <time>2012-07-26T16:34:26Z</time>
      </trkpt>
      <trkpt lat="47.48344" lon="4.3765">
        <ele>354.2</ele>
        <time>2012-07-26T16:34:30Z</time>
      </trkpt>
      <trkpt lat="47.48357" lon="4.37669">
        <ele>354.6</ele>
        <time>2012-07-26T16:34:34Z</time>
      </trkpt>
      <trkpt lat="47.48368" lon="4.37689">
        <ele>355</ele>
        <time>2012-07-26T16:34:38Z</time>
      </trkpt>
      <trkpt lat="47.48378" lon="4.37708">
        <ele>355.3</ele>
        <time>2012-07-26T16:34:42Z</time>
      </trkpt>
      <trkpt lat="47.48388" lon="4.37727">
        <ele>355.5</ele>
        <time>2012-07-26T16:34:46Z</time>
      </trkpt>
      <trkpt lat="47.48398" lon="4.37746">
        <ele>355.8</ele>
        <time>2012-07-26T16:34:50Z</time>
      </trkpt>
      <trkpt lat="47.48408" lon="4.37765">
        <ele>355.9</ele>
        <time>2012-07-26T16:34:54Z</time>
      </trkpt>
      <trkpt lat="47.48418" lon="4.37785">
        <ele>356</ele>
        <time>2012-07-26T16:34:58Z</time>
      </trkpt>
      <trkpt lat="47.48439" lon="4.37823">
        <ele>356</ele>
        <time>2012-07-26T16:35:06Z</time>
      </trkpt>
      <trkpt lat="47.4845" lon="4.37841">
        <ele>356.1</ele>
        <time>2012-07-26T16:35:10Z</time>
      </trkpt>
      <trkpt lat="47.4846" lon="4.37857">
        <ele>356.1</ele>
        <time>2012-07-26T16:35:14Z</time>
      </trkpt>
      <trkpt lat="47.48472" lon="4.37874">
        <ele>356.2</ele>
        <time>2012-07-26T16:35:18Z</time>
      </trkpt>
      <trkpt lat="47.48484" lon="4.37892">
        <ele>356.2</ele>
        <time>2012-07-26T16:35:22Z</time>
      </trkpt>
      <trkpt lat="47.48496" lon="4.37909">
        <ele>356.2</ele>
        <time>2012-07-26T16:35:26Z</time>
      </trkpt>
      <trkpt lat="47.4851" lon="4.37926">
        <ele>356.2</ele>
        <time>2012-07-26T16:35:30Z</time>
      </trkpt>
      <trkpt lat="47.48524" lon="4.37944">
        <ele>356.1</ele>
        <time>2012-07-26T16:35:34Z</time>
      </trkpt>
      <trkpt lat="47.48539" lon="4.37964">
        <ele>356</ele>
        <time>2012-07-26T16:35:38Z</time>
      </trkpt>
      <trkpt lat="47.48554" lon="4.37983">
        <ele>355.8</ele>
        <time>2012-07-26T16:35:42Z</time>
      </trkpt>
      <trkpt lat="47.48569" lon="4.38002">
        <ele>355.7</ele>
        <time>2012-07-26T16:35:46Z</time>
      </trkpt>
      <trkpt lat="47.48585" lon="4.38021">
        <ele>355.7</ele>
        <time>2012-07-26T16:35:50Z</time>
      </trkpt>
      <trkpt lat="47.48602" lon="4.38038">
        <ele>355.7</ele>
        <time>2012-07-26T16:35:54Z</time>
      </trkpt>
      <trkpt lat="47.48621" lon="4.38051">
        <ele>355.4</ele>
        <time>2012-07-26T16:35:58Z</time>
      </trkpt>
      <trkpt lat="47.48641" lon="4.3806">
        <ele>355.3</ele>
        <time>2012-07-26T16:36:02Z</time>
      </trkpt>
      <trkpt lat="47.48662" lon="4.38066">
        <ele>355.2</ele>
        <time>2012-07-26T16:36:06Z</time>
      </trkpt>
      <trkpt lat="47.48683" lon="4.38065">
        <ele>355</ele>
        <time>2012-07-26T16:36:10Z</time>
      </trkpt>
      <trkpt lat="47.48703" lon="4.38059">
        <ele>354.8</ele>
        <time>2012-07-26T16:36:14Z</time>
      </trkpt>
      <trkpt lat="47.48724" lon="4.38047">
        <ele>354.6</ele>
        <time>2012-07-26T16:36:18Z</time>
      </trkpt>
      <trkpt lat="47.48744" lon="4.38037">
        <ele>354.6</ele>
        <time>2012-07-26T16:36:22Z</time>
      </trkpt>
      <trkpt lat="47.48765" lon="4.3803">
        <ele>354.7</ele>
        <time>2012-07-26T16:36:26Z</time>
      </trkpt>
      <trkpt lat="47.48785" lon="4.38026">
        <ele>354.7</ele>
        <time>2012-07-26T16:36:30Z</time>
      </trkpt>
      <trkpt lat="47.48805" lon="4.3802">
        <ele>354.9</ele>
        <time>2012-07-26T16:36:34Z</time>
      </trkpt>
      <trkpt lat="47.48824" lon="4.38011">
        <ele>354.8</ele>
        <time>2012-07-26T16:36:38Z</time>
      </trkpt>
      <trkpt lat="47.48843" lon="4.38002">
        <ele>354.8</ele>
        <time>2012-07-26T16:36:42Z</time>
      </trkpt>
      <trkpt lat="47.48859" lon="4.37992">
        <ele>354.5</ele>
        <time>2012-07-26T16:36:46Z</time>
      </trkpt>
      <trkpt lat="47.48876" lon="4.37981">
        <ele>354.1</ele>
        <time>2012-07-26T16:36:50Z</time>
      </trkpt>
      <trkpt lat="47.48895" lon="4.37969">
        <ele>353.8</ele>
        <time>2012-07-26T16:36:54Z</time>
      </trkpt>
      <trkpt lat="47.48916" lon="4.37956">
        <ele>353.4</ele>
        <time>2012-07-26T16:36:58Z</time>
      </trkpt>
      <trkpt lat="47.48936" lon="4.37944">
        <ele>353</ele>
        <time>2012-07-26T16:37:02Z</time>
      </trkpt>
      <trkpt lat="47.48956" lon="4.37933">
        <ele>352.7</ele>
        <time>2012-07-26T16:37:06Z</time>
      </trkpt>
      <trkpt lat="47.48975" lon="4.37924">
        <ele>352.4</ele>
        <time>2012-07-26T16:37:10Z</time>
      </trkpt>
      <trkpt lat="47.48994" lon="4.37914">
        <ele>352.2</ele>
        <time>2012-07-26T16:37:14Z</time>
      </trkpt>
      <trkpt lat="47.49012" lon="4.37905">
        <ele>351.9</ele>
        <time>2012-07-26T16:37:18Z</time>
      </trkpt>
      <trkpt lat="47.4903" lon="4.37895">
        <ele>351.5</ele>
        <time>2012-07-26T16:37:22Z</time>
      </trkpt>
      <trkpt lat="47.4904" lon="4.37891">
        <ele>351.1</ele>
        <time>2012-07-26T16:37:24Z</time>
      </trkpt>
      <trkpt lat="47.49076" lon="4.37882">
        <ele>350.2</ele>
        <time>2012-07-26T16:37:30Z</time>
      </trkpt>
      <trkpt lat="47.49088" lon="4.37884">
        <ele>350.3</ele>
        <time>2012-07-26T16:37:32Z</time>
      </trkpt>
      <trkpt lat="47.49118" lon="4.3789">
        <ele>351.2</ele>
        <time>2012-07-26T16:37:38Z</time>
      </trkpt>
      <trkpt lat="47.49135" lon="4.37896">
        <ele>351.7</ele>
        <time>2012-07-26T16:37:42Z</time>
      </trkpt>
      <trkpt lat="47.49153" lon="4.37902">
        <ele>352.4</ele>
        <time>2012-07-26T16:37:46Z</time>
      </trkpt>
      <trkpt lat="47.49171" lon="4.3791">
        <ele>352.7</ele>
        <time>2012-07-26T16:37:50Z</time>
      </trkpt>
      <trkpt lat="47.49189" lon="4.37918">
        <ele>353.2</ele>
        <time>2012-07-26T16:37:54Z</time>
      </trkpt>
      <trkpt lat="47.49198" lon="4.37922">
        <ele>353.3</ele>
        <time>2012-07-26T16:37:56Z</time>
      </trkpt>
      <trkpt lat="47.49225" lon="4.37935">
        <ele>353.9</ele>
        <time>2012-07-26T16:38:02Z</time>
      </trkpt>
      <trkpt lat="47.49241" lon="4.37943">
        <ele>354.4</ele>
        <time>2012-07-26T16:38:06Z</time>
      </trkpt>
      <trkpt lat="47.4927" lon="4.37957">
        <ele>355.2</ele>
        <time>2012-07-26T16:38:14Z</time>
      </trkpt>
      <trkpt lat="47.49285" lon="4.37963">
        <ele>355.7</ele>
        <time>2012-07-26T16:38:18Z</time>
      </trkpt>
      <trkpt lat="47.493" lon="4.37971">
        <ele>356.2</ele>
        <time>2012-07-26T16:38:22Z</time>
      </trkpt>
      <trkpt lat="47.49315" lon="4.37978">
        <ele>356.7</ele>
        <time>2012-07-26T16:38:26Z</time>
      </trkpt>
      <trkpt lat="47.4933" lon="4.37985">
        <ele>357.1</ele>
        <time>2012-07-26T16:38:30Z</time>
      </trkpt>
      <trkpt lat="47.49345" lon="4.37993">
        <ele>357.7</ele>
        <time>2012-07-26T16:38:34Z</time>
      </trkpt>
      <trkpt lat="47.4936" lon="4.38">
        <ele>358.3</ele>
        <time>2012-07-26T16:38:38Z</time>
      </trkpt>
      <trkpt lat="47.49374" lon="4.38006">
        <ele>358.3</ele>
        <time>2012-07-26T16:38:42Z</time>
      </trkpt>
      <trkpt lat="47.49389" lon="4.38013">
        <ele>358.1</ele>
        <time>2012-07-26T16:38:46Z</time>
      </trkpt>
      <trkpt lat="47.49404" lon="4.3802">
        <ele>358.1</ele>
        <time>2012-07-26T16:38:50Z</time>
      </trkpt>
      <trkpt lat="47.49417" lon="4.38027">
        <ele>357.9</ele>
        <time>2012-07-26T16:38:54Z</time>
      </trkpt>
      <trkpt lat="47.4943" lon="4.38033">
        <ele>357.8</ele>
        <time>2012-07-26T16:38:58Z</time>
      </trkpt>
      <trkpt lat="47.49445" lon="4.3804">
        <ele>357.7</ele>
        <time>2012-07-26T16:39:02Z</time>
      </trkpt>
      <trkpt lat="47.49459" lon="4.38047">
        <ele>357.7</ele>
        <time>2012-07-26T16:39:06Z</time>
      </trkpt>
      <trkpt lat="47.49472" lon="4.38053">
        <ele>357.7</ele>
        <time>2012-07-26T16:39:10Z</time>
      </trkpt>
      <trkpt lat="47.49479" lon="4.38056">
        <ele>357.7</ele>
        <time>2012-07-26T16:39:12Z</time>
      </trkpt>
      <trkpt lat="47.49507" lon="4.38068">
        <ele>358</ele>
        <time>2012-07-26T16:39:20Z</time>
      </trkpt>
      <trkpt lat="47.49528" lon="4.38076">
        <ele>359.2</ele>
        <time>2012-07-26T16:39:26Z</time>
      </trkpt>
      <trkpt lat="47.49542" lon="4.3807">
        <ele>359.6</ele>
        <time>2012-07-26T16:39:30Z</time>
      </trkpt>
      <trkpt lat="47.49549" lon="4.38061">
        <ele>359.1</ele>
        <time>2012-07-26T16:39:32Z</time>
      </trkpt>
      <trkpt lat="47.49564" lon="4.38043">
        <ele>358.6</ele>
        <time>2012-07-26T16:39:36Z</time>
      </trkpt>
      <trkpt lat="47.49595" lon="4.38012">
        <ele>357</ele>
        <time>2012-07-26T16:39:42Z</time>
      </trkpt>
      <trkpt lat="47.49646" lon="4.37952">
        <ele>357.1</ele>
        <time>2012-07-26T16:39:47Z</time>
      </trkpt>
      <trkpt lat="47.49669" lon="4.37928">
        <ele>358.6</ele>
        <time>2012-07-26T16:39:51Z</time>
      </trkpt>
      <trkpt lat="47.4968" lon="4.37917">
        <ele>359.4</ele>
        <time>2012-07-26T16:39:53Z</time>
      </trkpt>
      <trkpt lat="47.49697" lon="4.37897">
        <ele>360.5</ele>
        <time>2012-07-26T16:39:56Z</time>
      </trkpt>
      <trkpt lat="47.49726" lon="4.37861">
        <ele>361.3</ele>
        <time>2012-07-26T16:40:03Z</time>
      </trkpt>
      <trkpt lat="47.49749" lon="4.37847">
        <ele>360.6</ele>
        <time>2012-07-26T16:40:06Z</time>
      </trkpt>
      <trkpt lat="47.49793" lon="4.37846">
        <ele>356.3</ele>
        <time>2012-07-26T16:40:14Z</time>
      </trkpt>
      <trkpt lat="47.49811" lon="4.37846">
        <ele>356.3</ele>
        <time>2012-07-26T16:40:18Z</time>
      </trkpt>
      <trkpt lat="47.49827" lon="4.37845">
        <ele>356.5</ele>
        <time>2012-07-26T16:40:22Z</time>
      </trkpt>
      <trkpt lat="47.49834" lon="4.37843">
        <ele>356.3</ele>
        <time>2012-07-26T16:40:24Z</time>
      </trkpt>
      <trkpt lat="47.49843" lon="4.37842">
        <ele>355.6</ele>
        <time>2012-07-26T16:40:27Z</time>
      </trkpt>
      <trkpt lat="47.49864" lon="4.37832">
        <ele>354.4</ele>
        <time>2012-07-26T16:41:31Z</time>
      </trkpt>
      <trkpt lat="47.49865" lon="4.37798">
        <ele>354</ele>
        <time>2012-07-26T16:41:38Z</time>
      </trkpt>
      <trkpt lat="47.49865" lon="4.37777">
        <ele>353.8</ele>
        <time>2012-07-26T16:41:42Z</time>
      </trkpt>
      <trkpt lat="47.49867" lon="4.37751">
        <ele>353.6</ele>
        <time>2012-07-26T16:41:46Z</time>
      </trkpt>
      <trkpt lat="47.49868" lon="4.37719">
        <ele>353.4</ele>
        <time>2012-07-26T16:41:50Z</time>
      </trkpt>
      <trkpt lat="47.49869" lon="4.37702">
        <ele>353.2</ele>
        <time>2012-07-26T16:41:52Z</time>
      </trkpt>
      <trkpt lat="47.49869" lon="4.37645">
        <ele>351.4</ele>
        <time>2012-07-26T16:41:58Z</time>
      </trkpt>
      <trkpt lat="47.49869" lon="4.37603">
        <ele>350.3</ele>
        <time>2012-07-26T16:42:02Z</time>
      </trkpt>
      <trkpt lat="47.4987" lon="4.37558">
        <ele>349.1</ele>
        <time>2012-07-26T16:42:06Z</time>
      </trkpt>
      <trkpt lat="47.49871" lon="4.37471">
        <ele>349</ele>
        <time>2012-07-26T16:42:10Z</time>
      </trkpt>
      <trkpt lat="47.4987" lon="4.37429">
        <ele>350.7</ele>
        <time>2012-07-26T16:42:14Z</time>
      </trkpt>
      <trkpt lat="47.49869" lon="4.37388">
        <ele>352.4</ele>
        <time>2012-07-26T16:42:18Z</time>
      </trkpt>
      <trkpt lat="47.49869" lon="4.3736">
        <ele>353.5</ele>
        <time>2012-07-26T16:42:21Z</time>
      </trkpt>
      <trkpt lat="47.49869" lon="4.37324">
        <ele>355</ele>
        <time>2012-07-26T16:42:25Z</time>
      </trkpt>
      <trkpt lat="47.49868" lon="4.37291">
        <ele>356.3</ele>
        <time>2012-07-26T16:42:29Z</time>
      </trkpt>
      <trkpt lat="47.49869" lon="4.37274">
        <ele>356.9</ele>
        <time>2012-07-26T16:42:31Z</time>
      </trkpt>
      <trkpt lat="47.4987" lon="4.37243">
        <ele>356.8</ele>
        <time>2012-07-26T16:42:35Z</time>
      </trkpt>
      <trkpt lat="47.49871" lon="4.37195">
        <ele>355.3</ele>
        <time>2012-07-26T16:42:41Z</time>
      </trkpt>
      <trkpt lat="47.49873" lon="4.37158">
        <ele>353.5</ele>
        <time>2012-07-26T16:42:45Z</time>
      </trkpt>
      <trkpt lat="47.49873" lon="4.37109">
        <ele>350.9</ele>
        <time>2012-07-26T16:42:51Z</time>
      </trkpt>
      <trkpt lat="47.49871" lon="4.37069">
        <ele>347.9</ele>
        <time>2012-07-26T16:42:54Z</time>
      </trkpt>
      <trkpt lat="47.49868" lon="4.3703">
        <ele>345.1</ele>
        <time>2012-07-26T16:42:58Z</time>
      </trkpt>
      <trkpt lat="47.49864" lon="4.36992">
        <ele>343.1</ele>
        <time>2012-07-26T16:43:02Z</time>
      </trkpt>
      <trkpt lat="47.49861" lon="4.36956">
        <ele>341.9</ele>
        <time>2012-07-26T16:43:06Z</time>
      </trkpt>
      <trkpt lat="47.49859" lon="4.3692">
        <ele>341.2</ele>
        <time>2012-07-26T16:43:10Z</time>
      </trkpt>
      <trkpt lat="47.49858" lon="4.36902">
        <ele>341.1</ele>
        <time>2012-07-26T16:43:12Z</time>
      </trkpt>
      <trkpt lat="47.49851" lon="4.3685">
        <ele>340.9</ele>
        <time>2012-07-26T16:43:18Z</time>
      </trkpt>
      <trkpt lat="47.49845" lon="4.36816">
        <ele>340.4</ele>
        <time>2012-07-26T16:43:22Z</time>
      </trkpt>
      <trkpt lat="47.49837" lon="4.36781">
        <ele>340.1</ele>
        <time>2012-07-26T16:43:26Z</time>
      </trkpt>
      <trkpt lat="47.49828" lon="4.36747">
        <ele>340</ele>
        <time>2012-07-26T16:43:30Z</time>
      </trkpt>
      <trkpt lat="47.4982" lon="4.36713">
        <ele>340</ele>
        <time>2012-07-26T16:43:34Z</time>
      </trkpt>
      <trkpt lat="47.49817" lon="4.36697">
        <ele>340</ele>
        <time>2012-07-26T16:43:36Z</time>
      </trkpt>
      <trkpt lat="47.49809" lon="4.36664">
        <ele>339.9</ele>
        <time>2012-07-26T16:43:40Z</time>
      </trkpt>
      <trkpt lat="47.49797" lon="4.36613">
        <ele>339.6</ele>
        <time>2012-07-26T16:43:46Z</time>
      </trkpt>
      <trkpt lat="47.49789" lon="4.36579">
        <ele>339.3</ele>
        <time>2012-07-26T16:43:50Z</time>
      </trkpt>
      <trkpt lat="47.49783" lon="4.36552">
        <ele>338.8</ele>
        <time>2012-07-26T16:43:53Z</time>
      </trkpt>
      <trkpt lat="47.49774" lon="4.36518">
        <ele>338.4</ele>
        <time>2012-07-26T16:43:57Z</time>
      </trkpt>
      <trkpt lat="47.49766" lon="4.36483">
        <ele>338</ele>
        <time>2012-07-26T16:44:01Z</time>
      </trkpt>
      <trkpt lat="47.49756" lon="4.36439">
        <ele>337.6</ele>
        <time>2012-07-26T16:44:06Z</time>
      </trkpt>
      <trkpt lat="47.49747" lon="4.36404">
        <ele>337.2</ele>
        <time>2012-07-26T16:44:10Z</time>
      </trkpt>
      <trkpt lat="47.49739" lon="4.36369">
        <ele>337</ele>
        <time>2012-07-26T16:44:14Z</time>
      </trkpt>
      <trkpt lat="47.49731" lon="4.36335">
        <ele>337</ele>
        <time>2012-07-26T16:44:18Z</time>
      </trkpt>
      <trkpt lat="47.49723" lon="4.36301">
        <ele>336.6</ele>
        <time>2012-07-26T16:44:22Z</time>
      </trkpt>
      <trkpt lat="47.49715" lon="4.36267">
        <ele>336.3</ele>
        <time>2012-07-26T16:44:26Z</time>
      </trkpt>
      <trkpt lat="47.49708" lon="4.36234">
        <ele>336.2</ele>
        <time>2012-07-26T16:44:30Z</time>
      </trkpt>
      <trkpt lat="47.497" lon="4.362">
        <ele>336.2</ele>
        <time>2012-07-26T16:44:34Z</time>
      </trkpt>
      <trkpt lat="47.49692" lon="4.36166">
        <ele>336.1</ele>
        <time>2012-07-26T16:44:38Z</time>
      </trkpt>
      <trkpt lat="47.49685" lon="4.36132">
        <ele>336</ele>
        <time>2012-07-26T16:44:42Z</time>
      </trkpt>
      <trkpt lat="47.49677" lon="4.36098">
        <ele>335.8</ele>
        <time>2012-07-26T16:44:46Z</time>
      </trkpt>
      <trkpt lat="47.4967" lon="4.36066">
        <ele>335.7</ele>
        <time>2012-07-26T16:44:50Z</time>
      </trkpt>
      <trkpt lat="47.49662" lon="4.36033">
        <ele>335.5</ele>
        <time>2012-07-26T16:44:54Z</time>
      </trkpt>
      <trkpt lat="47.49654" lon="4.36">
        <ele>335.3</ele>
        <time>2012-07-26T16:44:58Z</time>
      </trkpt>
      <trkpt lat="47.49647" lon="4.35967">
        <ele>335.2</ele>
        <time>2012-07-26T16:45:02Z</time>
      </trkpt>
      <trkpt lat="47.49639" lon="4.35935">
        <ele>335.1</ele>
        <time>2012-07-26T16:45:06Z</time>
      </trkpt>
      <trkpt lat="47.49632" lon="4.35903">
        <ele>335.2</ele>
        <time>2012-07-26T16:45:11Z</time>
      </trkpt>
      <trkpt lat="47.49624" lon="4.35871">
        <ele>335.2</ele>
        <time>2012-07-26T16:45:14Z</time>
      </trkpt>
      <trkpt lat="47.49617" lon="4.3584">
        <ele>335.2</ele>
        <time>2012-07-26T16:45:18Z</time>
      </trkpt>
      <trkpt lat="47.49613" lon="4.35824">
        <ele>335.2</ele>
        <time>2012-07-26T16:45:20Z</time>
      </trkpt>
      <trkpt lat="47.49602" lon="4.35778">
        <ele>335</ele>
        <time>2012-07-26T16:45:26Z</time>
      </trkpt>
      <trkpt lat="47.49595" lon="4.35749">
        <ele>335.2</ele>
        <time>2012-07-26T16:45:30Z</time>
      </trkpt>
      <trkpt lat="47.49588" lon="4.35719">
        <ele>335.4</ele>
        <time>2012-07-26T16:45:34Z</time>
      </trkpt>
      <trkpt lat="47.49581" lon="4.35691">
        <ele>335.5</ele>
        <time>2012-07-26T16:45:38Z</time>
      </trkpt>
      <trkpt lat="47.49574" lon="4.35664">
        <ele>335.4</ele>
        <time>2012-07-26T16:45:42Z</time>
      </trkpt>
      <trkpt lat="47.49569" lon="4.35639">
        <ele>335.9</ele>
        <time>2012-07-26T16:45:46Z</time>
      </trkpt>
      <trkpt lat="47.49563" lon="4.35614">
        <ele>336.2</ele>
        <time>2012-07-26T16:45:50Z</time>
      </trkpt>
      <trkpt lat="47.49558" lon="4.35589">
        <ele>336.5</ele>
        <time>2012-07-26T16:45:55Z</time>
      </trkpt>
      <trkpt lat="47.49549" lon="4.35568">
        <ele>337.1</ele>
        <time>2012-07-26T16:45:58Z</time>
      </trkpt>
      <trkpt lat="47.49533" lon="4.35562">
        <ele>337.1</ele>
        <time>2012-07-26T16:46:02Z</time>
      </trkpt>
      <trkpt lat="47.49528" lon="4.35551">
        <ele>337.1</ele>
        <time>2012-07-26T16:46:05Z</time>
      </trkpt>
      <trkpt lat="47.49525" lon="4.35532">
        <ele>338.3</ele>
        <time>2012-07-26T16:46:09Z</time>
      </trkpt>
      <trkpt lat="47.49519" lon="4.35512">
        <ele>338.8</ele>
        <time>2012-07-26T16:46:13Z</time>
      </trkpt>
      <trkpt lat="47.49515" lon="4.35502">
        <ele>338.3</ele>
        <time>2012-07-26T16:46:15Z</time>
      </trkpt>
      <trkpt lat="47.49508" lon="4.35471">
        <ele>338.3</ele>
        <time>2012-07-26T16:46:21Z</time>
      </trkpt>
      <trkpt lat="47.49503" lon="4.35449">
        <ele>338.4</ele>
        <time>2012-07-26T16:46:25Z</time>
      </trkpt>
      <trkpt lat="47.49496" lon="4.35427">
        <ele>338.7</ele>
        <time>2012-07-26T16:46:29Z</time>
      </trkpt>
      <trkpt lat="47.49487" lon="4.35388">
        <ele>339.9</ele>
        <time>2012-07-26T16:46:37Z</time>
      </trkpt>
      <trkpt lat="47.49482" lon="4.35366">
        <ele>339.3</ele>
        <time>2012-07-26T16:46:41Z</time>
      </trkpt>
      <trkpt lat="47.49477" lon="4.35347">
        <ele>340</ele>
        <time>2012-07-26T16:46:45Z</time>
      </trkpt>
      <trkpt lat="47.49471" lon="4.35325">
        <ele>340.4</ele>
        <time>2012-07-26T16:46:49Z</time>
      </trkpt>
      <trkpt lat="47.49466" lon="4.35301">
        <ele>340.1</ele>
        <time>2012-07-26T16:46:53Z</time>
      </trkpt>
      <trkpt lat="47.4946" lon="4.35279">
        <ele>340.2</ele>
        <time>2012-07-26T16:46:57Z</time>
      </trkpt>
      <trkpt lat="47.49455" lon="4.35257">
        <ele>340.4</ele>
        <time>2012-07-26T16:47:01Z</time>
      </trkpt>
      <trkpt lat="47.49451" lon="4.35234">
        <ele>340</ele>
        <time>2012-07-26T16:47:05Z</time>
      </trkpt>
      <trkpt lat="47.49441" lon="4.35188">
        <ele>339.7</ele>
        <time>2012-07-26T16:47:13Z</time>
      </trkpt>
      <trkpt lat="47.49435" lon="4.35165">
        <ele>339.6</ele>
        <time>2012-07-26T16:47:18Z</time>
      </trkpt>
      <trkpt lat="47.49432" lon="4.35154">
        <ele>339.6</ele>
        <time>2012-07-26T16:47:19Z</time>
      </trkpt>
      <trkpt lat="47.49424" lon="4.35118">
        <ele>339.6</ele>
        <time>2012-07-26T16:47:25Z</time>
      </trkpt>
      <trkpt lat="47.49419" lon="4.35096">
        <ele>340</ele>
        <time>2012-07-26T16:47:29Z</time>
      </trkpt>
      <trkpt lat="47.49416" lon="4.35085">
        <ele>340.6</ele>
        <time>2012-07-26T16:47:31Z</time>
      </trkpt>
      <trkpt lat="47.49408" lon="4.35051">
        <ele>340.5</ele>
        <time>2012-07-26T16:47:37Z</time>
      </trkpt>
      <trkpt lat="47.49405" lon="4.3504">
        <ele>340.9</ele>
        <time>2012-07-26T16:47:39Z</time>
      </trkpt>
      <trkpt lat="47.49397" lon="4.35005">
        <ele>341</ele>
        <time>2012-07-26T16:47:45Z</time>
      </trkpt>
      <trkpt lat="47.49386" lon="4.34958">
        <ele>341.9</ele>
        <time>2012-07-26T16:47:53Z</time>
      </trkpt>
      <trkpt lat="47.49379" lon="4.34935">
        <ele>342.4</ele>
        <time>2012-07-26T16:47:57Z</time>
      </trkpt>
      <trkpt lat="47.49375" lon="4.34913">
        <ele>342.2</ele>
        <time>2012-07-26T16:48:01Z</time>
      </trkpt>
      <trkpt lat="47.49369" lon="4.34889">
        <ele>342</ele>
        <time>2012-07-26T16:48:05Z</time>
      </trkpt>
      <trkpt lat="47.49363" lon="4.34866">
        <ele>342</ele>
        <time>2012-07-26T16:48:09Z</time>
      </trkpt>
      <trkpt lat="47.4936" lon="4.34854">
        <ele>342</ele>
        <time>2012-07-26T16:48:11Z</time>
      </trkpt>
      <trkpt lat="47.49352" lon="4.3482">
        <ele>342.2</ele>
        <time>2012-07-26T16:48:17Z</time>
      </trkpt>
      <trkpt lat="47.49347" lon="4.34796">
        <ele>342.4</ele>
        <time>2012-07-26T16:48:21Z</time>
      </trkpt>
      <trkpt lat="47.49336" lon="4.34752">
        <ele>343.7</ele>
        <time>2012-07-26T16:48:29Z</time>
      </trkpt>
      <trkpt lat="47.49333" lon="4.34741">
        <ele>343.7</ele>
        <time>2012-07-26T16:48:31Z</time>
      </trkpt>
      <trkpt lat="47.49325" lon="4.34706">
        <ele>343.8</ele>
        <time>2012-07-26T16:48:37Z</time>
      </trkpt>
      <trkpt lat="47.4932" lon="4.34682">
        <ele>343.9</ele>
        <time>2012-07-26T16:48:41Z</time>
      </trkpt>
      <trkpt lat="47.49314" lon="4.34658">
        <ele>343.9</ele>
        <time>2012-07-26T16:48:45Z</time>
      </trkpt>
      <trkpt lat="47.49308" lon="4.34634">
        <ele>343.4</ele>
        <time>2012-07-26T16:48:49Z</time>
      </trkpt>
      <trkpt lat="47.49296" lon="4.34584">
        <ele>343.3</ele>
        <time>2012-07-26T16:48:57Z</time>
      </trkpt>
      <trkpt lat="47.4929" lon="4.34559">
        <ele>343.2</ele>
        <time>2012-07-26T16:49:01Z</time>
      </trkpt>
      <trkpt lat="47.49283" lon="4.34536">
        <ele>343.5</ele>
        <time>2012-07-26T16:49:05Z</time>
      </trkpt>
      <trkpt lat="47.49278" lon="4.34512">
        <ele>344.7</ele>
        <time>2012-07-26T16:49:09Z</time>
      </trkpt>
      <trkpt lat="47.49272" lon="4.34486">
        <ele>346.2</ele>
        <time>2012-07-26T16:49:13Z</time>
      </trkpt>
      <trkpt lat="47.49266" lon="4.34462">
        <ele>346.3</ele>
        <time>2012-07-26T16:49:17Z</time>
      </trkpt>
      <trkpt lat="47.49264" lon="4.34452">
        <ele>346.1</ele>
        <time>2012-07-26T16:49:19Z</time>
      </trkpt>
      <trkpt lat="47.49256" lon="4.34416">
        <ele>345.9</ele>
        <time>2012-07-26T16:49:25Z</time>
      </trkpt>
      <trkpt lat="47.49251" lon="4.3439">
        <ele>346.7</ele>
        <time>2012-07-26T16:49:29Z</time>
      </trkpt>
      <trkpt lat="47.49246" lon="4.34363">
        <ele>346.1</ele>
        <time>2012-07-26T16:49:33Z</time>
      </trkpt>
      <trkpt lat="47.49244" lon="4.3435">
        <ele>346.2</ele>
        <time>2012-07-26T16:49:35Z</time>
      </trkpt>
      <trkpt lat="47.4924" lon="4.34313">
        <ele>346.1</ele>
        <time>2012-07-26T16:49:41Z</time>
      </trkpt>
      <trkpt lat="47.49237" lon="4.34284">
        <ele>345.5</ele>
        <time>2012-07-26T16:49:45Z</time>
      </trkpt>
      <trkpt lat="47.49236" lon="4.34269">
        <ele>345.4</ele>
        <time>2012-07-26T16:49:48Z</time>
      </trkpt>
      <trkpt lat="47.49232" lon="4.34231">
        <ele>345.4</ele>
        <time>2012-07-26T16:49:53Z</time>
      </trkpt>
      <trkpt lat="47.49229" lon="4.34208">
        <ele>346.5</ele>
        <time>2012-07-26T16:49:57Z</time>
      </trkpt>
      <trkpt lat="47.49225" lon="4.34187">
        <ele>347.1</ele>
        <time>2012-07-26T16:50:01Z</time>
      </trkpt>
      <trkpt lat="47.49221" lon="4.34165">
        <ele>347.8</ele>
        <time>2012-07-26T16:50:05Z</time>
      </trkpt>
      <trkpt lat="47.49218" lon="4.34143">
        <ele>348.7</ele>
        <time>2012-07-26T16:50:09Z</time>
      </trkpt>
      <trkpt lat="47.49216" lon="4.34121">
        <ele>349</ele>
        <time>2012-07-26T16:50:13Z</time>
      </trkpt>
      <trkpt lat="47.49213" lon="4.34101">
        <ele>349.4</ele>
        <time>2012-07-26T16:50:17Z</time>
      </trkpt>
      <trkpt lat="47.49212" lon="4.3408">
        <ele>349.5</ele>
        <time>2012-07-26T16:50:21Z</time>
      </trkpt>
      <trkpt lat="47.4921" lon="4.34058">
        <ele>348.7</ele>
        <time>2012-07-26T16:50:25Z</time>
      </trkpt>
      <trkpt lat="47.49205" lon="4.34035">
        <ele>350.8</ele>
        <time>2012-07-26T16:50:30Z</time>
      </trkpt>
      <trkpt lat="47.49205" lon="4.34016">
        <ele>351.5</ele>
        <time>2012-07-26T16:50:34Z</time>
      </trkpt>
      <trkpt lat="47.49203" lon="4.33994">
        <ele>350.9</ele>
        <time>2012-07-26T16:50:39Z</time>
      </trkpt>
      <trkpt lat="47.49202" lon="4.33973">
        <ele>350.6</ele>
        <time>2012-07-26T16:50:43Z</time>
      </trkpt>
      <trkpt lat="47.49201" lon="4.3395">
        <ele>349.3</ele>
        <time>2012-07-26T16:50:47Z</time>
      </trkpt>
      <trkpt lat="47.49196" lon="4.33932">
        <ele>350.5</ele>
        <time>2012-07-26T16:50:50Z</time>
      </trkpt>
      <trkpt lat="47.49195" lon="4.33896">
        <ele>347.9</ele>
        <time>2012-07-26T16:50:57Z</time>
      </trkpt>
      <trkpt lat="47.49193" lon="4.33875">
        <ele>346.4</ele>
        <time>2012-07-26T16:51:01Z</time>
      </trkpt>
      <trkpt lat="47.49191" lon="4.33853">
        <ele>346.2</ele>
        <time>2012-07-26T16:51:05Z</time>
      </trkpt>
      <trkpt lat="47.49189" lon="4.3383">
        <ele>344.3</ele>
        <time>2012-07-26T16:51:09Z</time>
      </trkpt>
      <trkpt lat="47.49187" lon="4.33818">
        <ele>344.7</ele>
        <time>2012-07-26T16:51:13Z</time>
      </trkpt>
      <trkpt lat="47.49178" lon="4.33804">
        <ele>343.7</ele>
        <time>2012-07-26T16:51:18Z</time>
      </trkpt>
      <trkpt lat="47.49156" lon="4.33782">
        <ele>341.6</ele>
        <time>2012-07-26T16:51:30Z</time>
      </trkpt>
      <trkpt lat="47.49118" lon="4.33798">
        <ele>340.1</ele>
        <time>2012-07-26T16:51:39Z</time>
      </trkpt>
      <trkpt lat="47.4911" lon="4.33801">
        <ele>339.9</ele>
        <time>2012-07-26T16:51:41Z</time>
      </trkpt>
      <trkpt lat="47.49091" lon="4.33807">
        <ele>339.5</ele>
        <time>2012-07-26T16:51:46Z</time>
      </trkpt>
      <trkpt lat="47.49056" lon="4.3382">
        <ele>338.3</ele>
        <time>2012-07-26T16:51:51Z</time>
      </trkpt>
      <trkpt lat="47.49039" lon="4.33821">
        <ele>336.3</ele>
        <time>2012-07-26T16:51:54Z</time>
      </trkpt>
      <trkpt lat="47.49032" lon="4.33795">
        <ele>334.7</ele>
        <time>2012-07-26T16:51:59Z</time>
      </trkpt>
      <trkpt lat="47.49031" lon="4.3377">
        <ele>334.1</ele>
        <time>2012-07-26T16:52:02Z</time>
      </trkpt>
      <trkpt lat="47.49031" lon="4.33744">
        <ele>334.2</ele>
        <time>2012-07-26T16:52:06Z</time>
      </trkpt>
      <trkpt lat="47.4903" lon="4.33718">
        <ele>334.2</ele>
        <time>2012-07-26T16:52:10Z</time>
      </trkpt>
      <trkpt lat="47.4903" lon="4.33692">
        <ele>334.8</ele>
        <time>2012-07-26T16:52:14Z</time>
      </trkpt>
      <trkpt lat="47.49028" lon="4.33663">
        <ele>335.2</ele>
        <time>2012-07-26T16:52:18Z</time>
      </trkpt>
      <trkpt lat="47.49026" lon="4.33635">
        <ele>335.1</ele>
        <time>2012-07-26T16:52:22Z</time>
      </trkpt>
      <trkpt lat="47.49024" lon="4.33623">
        <ele>334.3</ele>
        <time>2012-07-26T16:52:24Z</time>
      </trkpt>
      <trkpt lat="47.49021" lon="4.33587">
        <ele>334.8</ele>
        <time>2012-07-26T16:52:30Z</time>
      </trkpt>
      <trkpt lat="47.49021" lon="4.33564">
        <ele>335.3</ele>
        <time>2012-07-26T16:52:34Z</time>
      </trkpt>
      <trkpt lat="47.49025" lon="4.33542">
        <ele>335.3</ele>
        <time>2012-07-26T16:52:38Z</time>
      </trkpt>
      <trkpt lat="47.49039" lon="4.33534">
        <ele>335</ele>
        <time>2012-07-26T16:52:42Z</time>
      </trkpt>
      <trkpt lat="47.49054" lon="4.33528">
        <ele>334.7</ele>
        <time>2012-07-26T16:52:47Z</time>
      </trkpt>
      <trkpt lat="47.49061" lon="4.33525">
        <ele>333.8</ele>
        <time>2012-07-26T16:52:50Z</time>
      </trkpt>
      <trkpt lat="47.49061" lon="4.33525">
        <ele>287.1</ele>
        <time>2012-07-26T16:53:20Z</time>
      </trkpt>
      <trkpt lat="47.49061" lon="4.33525">
        <ele>287.1</ele>
        <time>2012-07-26T16:53:20Z</time>
      </trkpt>
    </trkseg>
  </trk>
</gpx>